Time;durP1;ratioP1;P1;durP2;ratioP2;P2;SDS_P1;SDS_P2;PMS_P1;PMS_P2;Temp;Humidity;BMP_temperature;BMP_pressure;BME280_temperature;BME280_humidity;BME280_pressure;Samples;Min_cycle;Max_cycle;Signal;HPM_P1;HPM_P2
2022/07/14 00:00:11;;;;;;;0.10;0.10;;;;;;;21.94;53.17;101650.19;5144770;27;20431;-39
2022/07/14 00:02:37;;;;;;;0.10;0.10;;;;;;;21.92;53.26;101647.69;5145022;27;20125;-39
2022/07/14 00:05:02;;;;;;;0.10;0.10;;;;;;;21.94;53.34;101647.44;5143820;27;20047;-39
2022/07/14 00:07:28;;;;;;;0.10;0.10;;;;;;;21.93;53.28;101652.13;5128346;27;20054;-37
2022/07/14 00:09:54;;;;;;;0.10;0.10;;;;;;;21.92;53.34;101653.22;5144726;27;20393;-38
2022/07/14 00:12:20;;;;;;;0.10;0.10;;;;;;;21.93;53.19;101663.22;5145000;27;20039;-39
2022/07/14 00:14:45;;;;;;;0.10;0.10;;;;;;;21.93;53.19;101663.22;5143692;27;20050;-37
2022/07/14 00:17:11;;;;;;;0.10;0.10;;;;;;;21.93;53.23;101654.06;5144544;27;20035;-37
2022/07/14 00:19:37;;;;;;;0.10;0.10;;;;;;;21.92;53.04;101658.78;5145767;27;20050;-37
2022/07/14 00:22:02;;;;;;;0.10;0.10;;;;;;;21.93;53.33;101651.28;5147648;27;20183;-37
2022/07/14 00:24:28;;;;;;;0.10;0.10;;;;;;;21.93;53.07;101659.59;5147839;27;20121;-39
2022/07/14 00:26:54;;;;;;;0.10;0.10;;;;;;;21.92;53.21;101653.22;5144387;27;20043;-37
2022/07/14 00:29:19;;;;;;;0.17;0.17;;;;;;;21.93;53.29;101657.66;5146896;27;20174;-38
2022/07/14 00:31:45;;;;;;;0.10;0.10;;;;;;;21.92;53.12;101650.47;5145459;27;20147;-37
2022/07/14 00:34:12;;;;;;;0.10;0.10;;;;;;;21.92;53.29;101647.69;5143677;27;20384;-39
2022/07/14 00:36:37;;;;;;;0.10;0.10;;;;;;;21.93;53.21;101651.28;5145647;27;20071;-37
2022/07/14 00:39:03;;;;;;;0.10;0.10;;;;;;;21.93;53.25;101654.06;5145870;27;20049;-37
2022/07/14 00:41:29;;;;;;;0.10;0.10;;;;;;;21.93;53.31;101652.13;5135221;27;20062;-37
2022/07/14 00:43:54;;;;;;;0.10;0.10;;;;;;;21.93;53.26;101654.06;5113003;28;20413;-37
2022/07/14 00:46:20;;;;;;;0.10;0.10;;;;;;;21.94;53.35;101647.44;5129992;28;20055;-39
2022/07/14 00:48:47;;;;;;;0.10;0.10;;;;;;;21.91;53.24;101645.22;5132843;28;20051;-38
2022/07/14 00:51:14;;;;;;;0.10;0.10;;;;;;;21.93;53.26;101642.97;5130907;28;20051;-39
2022/07/14 00:53:39;;;;;;;0.10;0.10;;;;;;;21.92;53.30;101633.81;5114601;28;20599;-39
2022/07/14 00:56:05;;;;;;;0.10;0.10;;;;;;;21.94;53.26;101644.66;5130727;28;20487;-36
2022/07/14 00:58:31;;;;;;;0.10;0.10;;;;;;;21.92;53.18;101647.69;5131577;28;20071;-37
2022/07/14 01:00:57;;;;;;;0.10;0.10;;;;;;;21.93;53.33;101637.41;5130967;28;20408;-37
2022/07/14 01:03:22;;;;;;;0.10;0.10;;;;;;;21.93;53.15;101629.09;5131388;28;20058;-39
2022/07/14 01:05:48;;;;;;;0.10;0.10;;;;;;;21.93;53.29;101641.03;5130856;28;20169;-39
2022/07/14 01:08:14;;;;;;;0.10;0.10;;;;;;;21.94;53.29;101641.88;5112612;28;20043;-38
2022/07/14 01:10:39;;;;;;;0.10;0.10;;;;;;;21.93;53.27;101632.69;5128629;28;20043;-39
2022/07/14 01:13:06;;;;;;;0.10;0.10;;;;;;;21.93;53.29;101631.88;5129499;28;20454;-39
2022/07/14 01:15:32;;;;;;;0.10;0.10;;;;;;;21.93;53.33;101631.88;5130452;28;20039;-39
2022/07/14 01:17:57;;;;;;;0.13;0.13;;;;;;;21.92;53.12;101625.50;5130423;27;20050;-37
2022/07/14 01:20:24;;;;;;;0.10;0.10;;;;;;;21.93;53.44;101627.16;5130125;28;20134;-39
2022/07/14 01:22:50;;;;;;;0.10;0.10;;;;;;;21.93;53.43;101626.31;5132513;28;20043;-39
2022/07/14 01:25:17;;;;;;;0.10;0.10;;;;;;;21.93;53.37;101629.09;5095582;28;21163;-38
2022/07/14 01:27:42;;;;;;;0.10;0.10;;;;;;;21.94;53.29;101630.78;5131758;28;20071;-39
2022/07/14 01:30:09;;;;;;;0.10;0.10;;;;;;;21.94;53.08;101641.88;5129520;28;20047;-38
2022/07/14 01:32:35;;;;;;;0.10;0.10;;;;;;;21.94;53.33;101633.56;5097301;28;20081;-38
2022/07/14 01:35:02;;;;;;;0.10;0.10;;;;;;;21.94;53.17;101641.88;5113319;27;20043;-39
2022/07/14 01:37:28;;;;;;;0.10;0.10;;;;;;;21.94;53.47;101644.66;5111719;28;20135;-39
2022/07/14 01:39:53;;;;;;;0.10;0.10;;;;;;;21.93;53.29;101640.19;5129569;28;20485;-37
2022/07/14 01:42:19;;;;;;;0.10;0.10;;;;;;;21.93;53.26;101659.59;5110780;28;20047;-39
2022/07/14 01:44:44;;;;;;;0.10;0.10;;;;;;;21.94;53.32;101673.22;5112053;28;20395;-38
2022/07/14 01:47:10;;;;;;;0.13;0.13;;;;;;;21.93;53.28;101667.94;5127916;28;20050;-39
2022/07/14 01:49:36;;;;;;;0.10;0.10;;;;;;;21.93;53.10;101662.38;5130002;28;20604;-37
2022/07/14 01:52:02;;;;;;;0.10;0.10;;;;;;;21.93;53.19;101660.44;5130602;27;20050;-38
2022/07/14 01:54:29;;;;;;;0.10;0.10;;;;;;;21.93;53.15;101659.59;5131604;28;20422;-37
2022/07/14 01:56:55;;;;;;;0.10;0.10;;;;;;;21.93;53.16;101654.06;5131291;28;20507;-37
2022/07/14 01:59:20;;;;;;;0.10;0.10;;;;;;;21.93;53.28;101641.03;5112489;28;20047;-36
2022/07/14 02:01:46;;;;;;;0.10;0.10;;;;;;;21.92;53.16;101635.75;5129133;28;20039;-37
2022/07/14 02:04:15;;;;;;;0.10;0.10;;;;;;;21.93;53.17;101643.78;5112116;28;20079;-37
2022/07/14 02:06:43;;;;;;;0.10;0.10;;;;;;;21.94;53.26;101630.78;5111240;28;20082;-37
2022/07/14 02:09:09;;;;;;;0.13;0.13;;;;;;;21.92;53.24;101625.50;5130570;28;20089;-36
2022/07/14 02:14:21;;;;;;;0.10;0.10;;;;;;;21.93;53.33;101624.38;5085478;28;20492;-36
2022/07/14 02:16:46;;;;;;;0.10;0.10;;;;;;;21.92;53.27;101621.91;5128054;28;20075;-37
2022/07/14 02:19:12;;;;;;;0.10;0.10;;;;;;;21.94;53.26;101622.47;5130392;27;20054;-38
2022/07/14 02:21:39;;;;;;;0.10;0.10;;;;;;;21.92;53.25;101630.22;5129568;28;20518;-37
2022/07/14 02:24:06;;;;;;;0.10;0.10;;;;;;;21.93;53.24;101631.88;5130550;28;20473;-38
2022/07/14 02:26:32;;;;;;;0.10;0.10;;;;;;;21.92;53.45;101610.81;5094749;28;20097;-38
2022/07/14 02:28:58;;;;;;;0.10;0.10;;;;;;;21.93;53.43;101612.47;5131310;28;20488;-37
2022/07/14 02:31:23;;;;;;;0.10;0.10;;;;;;;21.93;53.31;101604.16;5111469;28;20095;-37
2022/07/14 02:33:49;;;;;;;0.10;0.10;;;;;;;21.94;53.28;101606.66;5129887;28;20394;-37
2022/07/14 02:36:15;;;;;;;0.10;0.10;;;;;;;21.94;53.36;101611.38;5130248;28;20039;-38
2022/07/14 02:38:41;;;;;;;0.10;0.10;;;;;;;21.92;53.35;101614.41;5111813;28;20047;-37
2022/07/14 02:41:07;;;;;;;0.10;0.10;;;;;;;21.93;53.32;101610.50;5130142;28;20089;-37
2022/07/14 02:43:34;;;;;;;0.10;0.10;;;;;;;21.94;53.32;101616.91;5111714;28;20047;-37
2022/07/14 02:46:00;;;;;;;0.10;0.10;;;;;;;21.95;53.33;101621.34;5107553;28;20054;-39
2022/07/14 02:48:26;;;;;;;0.10;0.10;;;;;;;21.93;53.19;101629.94;5130791;28;20103;-40
2022/07/14 02:50:57;;;;;;;0.10;0.10;;;;;;;21.94;53.36;101641.88;5111952;28;20047;-41
2022/07/14 02:53:23;;;;;;;0.10;0.10;;;;;;;21.93;53.33;101635.47;5131571;28;20465;-41
2022/07/14 02:55:49;;;;;;;0.10;0.10;;;;;;;21.93;53.31;101638.25;5129643;28;20041;-40
2022/07/14 02:58:14;;;;;;;0.10;0.10;;;;;;;21.93;53.34;101645.75;5129320;28;20053;-39
2022/07/14 03:00:41;;;;;;;0.10;0.10;;;;;;;21.92;53.34;101642.13;5128723;28;20544;-39
2022/07/14 03:03:06;;;;;;;0.10;0.10;;;;;;;21.93;53.15;101642.97;5129875;27;20135;-40
2022/07/14 03:05:32;;;;;;;0.10;0.10;;;;;;;21.93;53.50;101637.41;5129744;28;20465;-37
2022/07/14 03:07:58;;;;;;;0.10;0.10;;;;;;;21.92;53.26;101622.72;5129765;28;20431;-38
2022/07/14 03:10:23;;;;;;;0.10;0.10;;;;;;;21.93;53.38;101624.38;5130024;28;20043;-41
2022/07/14 03:12:49;;;;;;;0.10;0.10;;;;;;;21.94;53.33;101625.25;5129927;28;20050;-39
2022/07/14 03:15:15;;;;;;;0.10;0.10;;;;;;;21.93;53.34;101635.47;5128940;28;20062;-41
2022/07/14 03:17:40;;;;;;;0.10;0.10;;;;;;;21.93;53.45;101627.16;5128952;28;20483;-39
2022/07/14 03:20:07;;;;;;;0.10;0.10;;;;;;;21.93;53.15;101613.28;5129333;28;20096;-39
2022/07/14 03:22:33;;;;;;;0.10;0.10;;;;;;;21.94;53.36;101603.88;5131143;28;20143;-40
2022/07/14 03:24:58;;;;;;;0.10;0.10;;;;;;;21.93;53.49;101599.41;5130491;28;20458;-39
2022/07/14 03:27:25;;;;;;;0.10;0.10;;;;;;;21.93;53.44;101598.59;5127565;28;20035;-39
2022/07/14 03:29:50;;;;;;;0.10;0.10;;;;;;;21.93;53.31;101610.50;5110294;28;20504;-40
2022/07/14 03:32:16;;;;;;;0.10;0.10;;;;;;;21.94;53.34;101608.59;5129229;28;20035;-39
2022/07/14 03:34:42;;;;;;;0.10;0.10;;;;;;;21.94;53.35;101612.19;5110636;28;20040;-38
2022/07/14 03:37:09;;;;;;;0.10;0.10;;;;;;;21.93;53.25;101618.00;5128731;28;20040;-39
2022/07/14 03:39:34;;;;;;;0.10;0.10;;;;;;;21.94;53.43;101623.28;5129007;28;20554;-39
2022/07/14 03:42:00;;;;;;;0.10;0.10;;;;;;;21.93;53.43;101613.28;5128208;27;20039;-40
2022/07/14 03:44:26;;;;;;;0.10;0.10;;;;;;;21.94;53.29;101614.97;5128188;28;20458;-39
2022/07/14 03:46:51;;;;;;;0.20;0.20;;;;;;;21.93;53.51;101610.50;5128679;28;20039;-39
2022/07/14 03:49:17;;;;;;;0.10;0.10;;;;;;;21.93;53.35;101602.19;5130585;28;20091;-40
2022/07/14 03:51:43;;;;;;;0.10;0.10;;;;;;;21.95;53.43;101601.94;5130118;28;20049;-41
2022/07/14 03:54:10;;;;;;;0.10;0.10;;;;;;;21.93;53.41;101601.38;5111315;28;20043;-41
2022/07/14 03:56:36;;;;;;;0.10;0.10;;;;;;;21.93;53.16;101602.19;5110268;28;20086;-40
2022/07/14 03:59:03;;;;;;;0.10;0.10;;;;;;;21.93;53.28;101601.38;5111524;28;20078;-41
2022/07/14 04:01:29;;;;;;;0.10;0.10;;;;;;;21.93;53.35;101604.97;5106954;28;20055;-41
2022/07/14 04:03:55;;;;;;;0.10;0.10;;;;;;;21.93;53.27;101593.88;5130132;28;20458;-40
2022/07/14 04:06:20;;;;;;;0.10;0.10;;;;;;;21.93;53.40;101595.81;5126688;28;20434;-41
2022/07/14 04:08:46;;;;;;;0.10;0.10;;;;;;;21.93;53.33;101596.66;5128259;28;20047;-39
2022/07/14 04:11:13;;;;;;;0.10;0.10;;;;;;;21.94;53.39;101591.97;5128486;28;20040;-40
2022/07/14 04:13:38;;;;;;;0.10;0.10;;;;;;;21.94;53.44;101598.34;5129670;28;20083;-40
2022/07/14 04:16:06;;;;;;;0.10;0.10;;;;;;;21.92;53.54;101597.78;5125537;27;20129;-39
2022/07/14 04:18:32;;;;;;;0.10;0.10;;;;;;;21.95;53.23;101610.25;5133704;28;20047;-39
2022/07/14 04:20:57;;;;;;;0.10;0.10;;;;;;;21.94;53.41;101603.88;5132641;28;20098;-40
2022/07/14 04:23:23;;;;;;;0.10;0.10;;;;;;;21.93;53.48;101604.97;5132932;28;20078;-39
2022/07/14 04:25:49;;;;;;;0.10;0.10;;;;;;;21.93;53.51;101606.91;5131201;28;20039;-40
2022/07/14 04:28:15;;;;;;;0.10;0.10;;;;;;;21.93;53.29;101607.75;5114579;28;20054;-41
2022/07/14 04:30:41;;;;;;;0.10;0.10;;;;;;;21.94;53.44;101614.97;5111912;28;20125;-40
2022/07/14 04:33:09;;;;;;;0.10;0.10;;;;;;;21.93;53.37;101616.06;5114432;28;20465;-40
2022/07/14 04:35:35;;;;;;;0.10;0.10;;;;;;;21.94;53.36;101614.16;5132463;28;20081;-40
2022/07/14 04:38:01;;;;;;;0.10;0.10;;;;;;;21.93;53.57;101612.47;5131904;28;20063;-40
2022/07/14 04:40:27;;;;;;;0.10;0.10;;;;;;;21.93;53.43;101612.47;5129988;28;20077;-41
2022/07/14 04:42:52;;;;;;;0.10;0.10;;;;;;;21.94;53.44;101616.91;5113509;28;20058;-40
2022/07/14 04:45:20;;;;;;;0.10;0.10;;;;;;;21.93;53.33;101620.78;5129194;28;20104;-41
2022/07/14 04:47:48;;;;;;;0.10;0.10;;;;;;;21.94;53.31;101634.38;5130275;28;20316;-40
2022/07/14 04:52:59;;;;;;;0.20;0.20;;;;;;;21.93;53.36;101618.84;5117981;28;20079;-40
2022/07/14 04:55:25;;;;;;;0.10;0.10;;;;;;;21.94;53.36;101628.00;5131947;28;20054;-39
2022/07/14 04:57:51;;;;;;;0.10;0.10;;;;;;;21.94;53.33;101622.47;5130489;28;20150;-40
2022/07/14 05:00:17;;;;;;;0.10;0.10;;;;;;;21.93;53.41;101616.06;5131021;28;20188;-39
2022/07/14 05:02:43;;;;;;;0.10;0.10;;;;;;;21.93;53.38;101621.59;5130959;28;20089;-39
2022/07/14 05:05:09;;;;;;;0.10;0.10;;;;;;;21.93;53.45;101612.47;5130120;28;20058;-39
2022/07/14 05:07:34;;;;;;;0.10;0.10;;;;;;;21.94;53.45;101608.59;5132258;28;20051;-41
2022/07/14 05:10:00;;;;;;;0.10;0.10;;;;;;;21.94;53.29;101617.75;5130804;28;20164;-40
2022/07/14 05:12:26;;;;;;;0.10;0.10;;;;;;;21.94;53.26;101622.47;5132336;28;20082;-41
2022/07/14 05:14:52;;;;;;;0.10;0.10;;;;;;;21.92;53.41;101617.19;5132164;28;20039;-39
2022/07/14 05:17:18;;;;;;;0.10;0.10;;;;;;;21.94;53.39;101622.47;5112313;28;20043;-40
2022/07/14 05:19:51;;;;;;;0.10;0.10;;;;;;;21.94;53.44;101623.28;5130268;28;20058;-39
2022/07/14 05:22:17;;;;;;;0.10;0.10;;;;;;;21.93;53.40;101612.47;5131614;28;20051;-39
2022/07/14 05:24:43;;;;;;;0.10;0.10;;;;;;;21.93;53.17;101613.28;5129443;28;20409;-40
2022/07/14 05:27:09;;;;;;;0.10;0.10;;;;;;;21.93;53.11;101612.47;5128018;27;20043;-40
2022/07/14 05:29:35;;;;;;;0.10;0.10;;;;;;;21.94;53.39;101614.16;5131402;28;20055;-40
2022/07/14 05:32:01;;;;;;;0.10;0.10;;;;;;;21.94;53.38;101614.97;5129282;28;20052;-40
2022/07/14 05:34:29;;;;;;;0.10;0.10;;;;;;;21.94;53.35;101614.97;5131684;28;20039;-40
2022/07/14 05:36:56;;;;;;;0.10;0.10;;;;;;;21.94;53.19;101614.97;5130382;28;20125;-38
2022/07/14 05:39:22;;;;;;;0.10;0.10;;;;;;;21.94;53.27;101611.38;5131482;28;20487;-40
2022/07/14 05:41:47;;;;;;;0.10;0.10;;;;;;;21.93;53.33;101613.28;5129394;27;20051;-38
2022/07/14 05:44:13;;;;;;;0.10;0.10;;;;;;;21.94;53.18;101622.47;5110758;28;20134;-40
2022/07/14 05:46:39;;;;;;;0.10;0.10;;;;;;;21.93;53.31;101618.00;5129459;27;20054;-39
2022/07/14 05:49:05;;;;;;;0.20;0.20;;;;;;;21.94;53.29;101614.16;5131373;28;20055;-39
2022/07/14 05:51:30;;;;;;;0.10;0.10;;;;;;;21.94;53.15;101625.25;5113038;28;20095;-39
2022/07/14 05:53:56;;;;;;;0.10;0.10;;;;;;;21.94;53.22;101622.47;5129476;28;20039;-40
2022/07/14 05:56:22;;;;;;;0.10;0.10;;;;;;;21.92;53.40;101611.63;5130926;28;20134;-39
2022/07/14 05:58:47;;;;;;;0.10;0.10;;;;;;;21.93;53.33;101607.75;5131846;28;20319;-39
2022/07/14 06:01:16;;;;;;;0.10;0.10;;;;;;;21.93;53.42;101607.75;5113201;28;20469;-40
2022/07/14 06:03:42;;;;;;;0.10;0.10;;;;;;;21.92;53.47;101614.41;5113646;28;20073;-39
2022/07/14 06:06:08;;;;;;;0.10;0.10;;;;;;;21.94;53.38;101620.53;5129969;28;20035;-39
2022/07/14 06:08:35;;;;;;;0.10;0.10;;;;;;;21.94;53.44;101626.06;5130278;28;20843;-39
2022/07/14 06:11:00;;;;;;;0.10;0.10;;;;;;;21.93;53.31;101632.69;5110571;28;20074;-38
2022/07/14 06:13:27;;;;;;;0.10;0.10;;;;;;;21.95;53.19;101635.22;5130474;28;20070;-39
2022/07/14 06:15:54;;;;;;;0.10;0.10;;;;;;;21.94;53.43;101633.56;5111828;28;20836;-39
2022/07/14 06:18:19;;;;;;;0.10;0.10;;;;;;;21.93;53.02;101635.47;5110694;28;20047;-39
2022/07/14 06:20:47;;;;;;;0.10;0.10;;;;;;;21.93;53.27;101618.00;5112924;28;20096;-39
2022/07/14 06:23:12;;;;;;;0.10;0.10;;;;;;;21.93;53.24;101629.94;5130660;28;20090;-39
2022/07/14 06:25:38;;;;;;;0.10;0.10;;;;;;;21.94;53.14;101634.38;5112627;28;20043;-39
2022/07/14 06:28:04;;;;;;;0.10;0.10;;;;;;;21.94;53.16;101633.56;5112302;28;20046;-40
2022/07/14 06:30:30;;;;;;;0.10;0.10;;;;;;;21.94;53.33;101625.25;5111005;28;20145;-39
2022/07/14 06:32:56;;;;;;;0.10;0.10;;;;;;;21.94;53.27;101636.34;5112531;28;20045;-39
2022/07/14 06:35:22;;;;;;;0.10;0.10;;;;;;;21.92;53.57;101636.59;5128656;28;20047;-39
2022/07/14 06:37:48;;;;;;;0.10;0.10;;;;;;;21.93;53.35;101638.25;5112094;27;20058;-39
2022/07/14 06:40:14;;;;;;;0.10;0.10;;;;;;;21.94;53.33;101637.16;5129370;28;20054;-39
2022/07/14 06:42:40;;;;;;;0.10;0.10;;;;;;;21.94;53.39;101639.94;5130826;28;20071;-38
2022/07/14 06:45:06;;;;;;;0.10;0.10;;;;;;;21.93;53.46;101640.19;5131435;28;20047;-39
2022/07/14 06:47:31;;;;;;;0.10;0.10;;;;;;;21.94;53.29;101630.78;5128245;27;20074;-38
2022/07/14 06:49:59;;;;;;;0.10;0.10;;;;;;;21.94;53.38;101639.09;5128820;28;20050;-40
2022/07/14 06:52:25;;;;;;;0.10;0.10;;;;;;;21.94;53.34;101633.56;5111955;28;20409;-38
2022/07/14 06:54:51;;;;;;;0.10;0.10;;;;;;;21.94;53.39;101636.34;5130312;28;20039;-41
2022/07/14 06:57:18;;;;;;;0.10;0.10;;;;;;;21.93;53.23;101624.38;5130443;28;20481;-39
2022/07/14 06:59:43;;;;;;;0.10;0.10;;;;;;;21.93;53.20;101629.09;5127005;28;20086;-40
2022/07/14 07:02:09;;;;;;;0.20;0.20;;;;;;;21.94;53.41;101628.00;5129355;28;20104;-37
2022/07/14 07:04:35;;;;;;;0.10;0.10;;;;;;;21.93;53.20;101631.88;5130015;28;20057;-39
2022/07/14 07:07:01;;;;;;;0.10;0.10;;;;;;;21.95;53.38;101626.91;5130067;28;20362;-40
2022/07/14 07:09:26;;;;;;;0.10;0.10;;;;;;;21.93;53.38;101621.59;5110927;28;20111;-39
2022/07/14 07:11:52;;;;;;;0.10;0.10;;;;;;;21.93;53.26;101612.47;5129465;28;20122;-39
2022/07/14 07:14:18;;;;;;;0.10;0.10;;;;;;;21.94;53.27;101611.38;5129607;28;20120;-39
2022/07/14 07:16:45;;;;;;;0.10;0.10;;;;;;;21.95;53.39;101613.03;5128326;28;20079;-39
2022/07/14 07:19:11;;;;;;;0.10;0.10;;;;;;;21.93;53.24;101621.59;5128987;28;20089;-41
2022/07/14 07:21:37;;;;;;;0.20;0.20;;;;;;;21.94;53.29;101611.38;5111989;28;20067;-40
2022/07/14 07:24:02;;;;;;;0.10;0.10;;;;;;;21.94;53.49;101616.91;5128235;28;20047;-39
2022/07/14 07:26:33;;;;;;;0.10;0.10;;;;;;;21.93;53.13;101623.56;5128148;28;20066;-38
2022/07/14 07:28:59;;;;;;;0.10;0.10;;;;;;;21.92;53.44;101622.72;5109086;28;20094;-40
2022/07/14 07:31:29;;;;;;;0.10;0.10;;;;;;;21.94;53.42;101616.91;5129809;28;20043;-38
2022/07/14 07:33:55;;;;;;;0.10;0.10;;;;;;;21.93;53.17;101618.84;5127004;28;20043;-39
2022/07/14 07:36:20;;;;;;;0.10;0.10;;;;;;;21.93;53.38;101613.28;5129280;28;20058;-38
2022/07/14 07:38:46;;;;;;;0.20;0.20;;;;;;;21.93;53.10;101618.84;5128872;28;20409;-40
2022/07/14 07:41:12;;;;;;;0.10;0.10;;;;;;;21.93;53.24;101620.78;5128834;28;20055;-39
2022/07/14 07:43:37;;;;;;;0.10;0.10;;;;;;;21.92;53.24;101613.59;5129424;28;20039;-39
2022/07/14 07:46:05;;;;;;;0.10;0.10;;;;;;;21.94;53.23;101616.91;5127909;27;20107;-38
2022/07/14 07:48:32;;;;;;;0.10;0.10;;;;;;;21.94;53.33;101619.69;5127869;28;20054;-38
2022/07/14 07:50:58;;;;;;;0.10;0.10;;;;;;;21.94;53.24;101622.47;5129352;27;20051;-39
2022/07/14 07:53:23;;;;;;;0.10;0.10;;;;;;;21.94;53.51;101616.91;5131077;28;20847;-39
2022/07/14 07:55:49;;;;;;;0.10;0.10;;;;;;;21.94;53.34;101612.19;5114798;28;20476;-39
2022/07/14 07:58:15;;;;;;;0.10;0.10;;;;;;;21.94;53.19;101605.81;5132959;28;20043;-39
2022/07/14 08:00:40;;;;;;;0.10;0.10;;;;;;;21.93;53.45;101604.16;5127677;28;20069;-39
2022/07/14 08:03:06;;;;;;;0.10;0.10;;;;;;;21.93;53.17;101609.69;5132094;28;20103;-41
2022/07/14 08:05:32;;;;;;;0.10;0.10;;;;;;;21.94;53.38;101609.44;5130749;28;20039;-38
2022/07/14 08:08:18;;;;;;;0.10;0.10;;;;;;;21.95;53.43;101599.16;5116571;28;20039;-41
2022/07/14 08:10:44;;;;;;;0.10;0.10;;;;;;;21.94;53.35;101595.56;5132282;28;20396;-40
2022/07/14 08:13:10;;;;;;;0.10;0.10;;;;;;;21.94;53.34;101595.56;5132650;28;20047;-40
2022/07/14 08:15:36;;;;;;;0.10;0.10;;;;;;;21.94;53.50;101595.56;5113163;28;20047;-39
2022/07/14 08:18:02;;;;;;;0.10;0.10;;;;;;;21.94;53.27;101591.97;5132205;28;20493;-39
2022/07/14 08:20:29;;;;;;;0.10;0.10;;;;;;;21.94;53.27;101591.97;5131967;28;20130;-39
2022/07/14 08:22:55;;;;;;;0.10;0.10;;;;;;;21.94;53.25;101589.19;5129262;28;20047;-39
2022/07/14 08:25:20;;;;;;;0.10;0.10;;;;;;;21.93;53.37;101587.50;5113241;28;20091;-41
2022/07/14 08:27:46;;;;;;;0.10;0.10;;;;;;;21.93;53.26;101579.19;5131821;27;20055;-39
2022/07/14 08:30:12;;;;;;;0.10;0.10;;;;;;;21.95;53.13;101585.28;5132021;28;20051;-38
2022/07/14 08:32:40;;;;;;;0.10;0.10;;;;;;;21.93;53.15;101579.19;5129647;28;20035;-40
2022/07/14 08:35:08;;;;;;;0.10;0.10;;;;;;;21.93;53.21;101576.41;5113887;28;20051;-40
2022/07/14 08:37:35;;;;;;;0.20;0.20;;;;;;;21.93;53.17;101577.25;5129443;28;20087;-40
2022/07/14 08:40:04;;;;;;;0.10;0.10;;;;;;;21.94;53.39;101572.56;5111810;28;20439;-40
2022/07/14 08:42:31;;;;;;;0.10;0.10;;;;;;;21.93;53.29;101565.31;5132338;28;20469;-39
2022/07/14 08:44:56;;;;;;;0.10;0.10;;;;;;;21.94;53.18;101562.28;5132420;27;20047;-39
2022/07/14 08:47:22;;;;;;;0.10;0.10;;;;;;;21.93;53.23;101566.16;5131109;28;20047;-39
2022/07/14 08:49:48;;;;;;;0.10;0.10;;;;;;;21.95;53.49;101568.66;5132811;28;20050;-39
2022/07/14 08:52:31;;;;;;;0.10;0.10;;;;;;;21.93;53.21;101563.38;5132773;28;20130;-39
2022/07/14 08:54:57;;;;;;;0.10;0.10;;;;;;;21.94;53.24;101561.44;5114213;28;20099;-39
2022/07/14 08:57:23;;;;;;;0.10;0.10;;;;;;;21.94;53.62;101558.69;5114735;28;20043;-39
2022/07/14 08:59:48;;;;;;;0.10;0.10;;;;;;;21.92;53.27;101560.91;5129899;28;20302;-37
2022/07/14 09:02:14;;;;;;;0.10;0.10;;;;;;;21.93;53.38;101563.38;5131061;27;20397;-38
2022/07/14 09:04:44;;;;;;;0.10;0.10;;;;;;;21.94;53.28;101570.59;5131782;28;20039;-40
2022/07/14 09:07:12;;;;;;;0.10;0.10;;;;;;;21.93;53.43;101570.88;5131957;27;20040;-39
2022/07/14 09:09:38;;;;;;;0.10;0.10;;;;;;;21.93;53.11;101568.91;5115908;28;20126;-39
2022/07/14 09:12:05;;;;;;;0.10;0.10;;;;;;;21.93;53.18;101566.16;5101087;28;20091;-40
2022/07/14 09:15:44;;;;;;;0.10;0.10;;;;;;;21.94;53.24;101561.44;5110726;28;20513;-39
2022/07/14 09:17:22;;;;;;;0.10;0.10;;;;;;;21.94;53.27;101570.59;5099959;28;20131;-39
2022/07/14 09:20:07;;;;;;;0.10;0.10;;;;;;;21.93;53.07;101568.91;5112177;28;20450;-38
2022/07/14 09:22:36;;;;;;;0.10;0.10;;;;;;;21.93;53.13;101573.63;5130522;28;20066;-40
2022/07/14 09:25:03;;;;;;;0.10;0.10;;;;;;;21.94;53.15;101572.56;5131132;28;20078;-40
2022/07/14 09:27:29;;;;;;;0.10;0.10;;;;;;;21.93;53.33;101562.53;5131124;27;20043;-38
2022/07/14 09:29:55;;;;;;;0.10;0.10;;;;;;;21.93;53.24;101565.31;5130748;28;20058;-39
2022/07/14 09:32:45;;;;;;;0.10;0.10;;;;;;;21.93;53.35;101565.31;5129700;28;20469;-38
2022/07/14 09:35:12;;;;;;;0.17;0.17;;;;;;;21.93;53.24;101563.38;5112042;28;20074;-39
2022/07/14 09:37:39;;;;;;;0.10;0.10;;;;;;;21.93;53.27;101562.53;5111244;28;20050;-38
2022/07/14 09:40:07;;;;;;;0.10;0.10;;;;;;;21.94;53.25;101561.44;5131646;28;20047;-39
2022/07/14 09:45:35;;;;;;;0.10;0.10;;;;;;;21.93;53.25;101560.59;5177726;27;20202;-39
2022/07/14 09:48:08;;;;;;;0.10;0.10;;;;;;;21.92;53.26;101545.09;5162247;27;20092;-38
2022/07/14 09:50:57;;;;;;;0.10;0.10;;;;;;;21.94;53.13;101553.97;5127273;27;20078;-38
2022/07/14 09:53:26;;;;;;;0.10;0.10;;;;;;;21.94;53.24;101562.28;5125012;27;20057;-39
2022/07/14 09:55:58;;;;;;;0.10;0.10;;;;;;;21.94;53.19;101558.69;5152085;27;20039;-38
2022/07/14 09:58:26;;;;;;;0.10;0.10;;;;;;;21.93;53.16;101559.78;5137014;27;20082;-38
2022/07/14 10:01:08;;;;;;;0.10;0.10;;;;;;;21.95;53.21;101568.66;5161059;27;20317;-39
2022/07/14 10:03:36;;;;;;;0.10;0.10;;;;;;;21.94;53.28;101556.72;5158890;27;20054;-39
2022/07/14 10:06:04;;;;;;;0.10;0.10;;;;;;;21.93;53.25;101552.28;5155012;27;20047;-38
2022/07/14 10:08:53;;;;;;;0.10;0.10;;;;;;;21.93;53.17;101546.72;5130423;27;20465;-39
2022/07/14 10:11:19;;;;;;;0.10;0.10;;;;;;;21.94;53.17;101553.97;5141826;27;20050;-39
2022/07/14 10:13:45;;;;;;;0.10;0.10;;;;;;;21.94;53.19;101561.44;5164517;27;20448;-40
2022/07/14 10:16:11;;;;;;;0.10;0.10;;;;;;;21.94;53.35;101565.06;5158134;27;21195;-39
2022/07/14 10:18:42;;;;;;;0.10;0.10;;;;;;;21.94;53.18;101567.00;5164969;27;20050;-40
2022/07/14 10:21:09;;;;;;;0.10;0.10;;;;;;;21.93;53.23;101559.78;5156173;27;20069;-40
2022/07/14 10:23:35;;;;;;;0.10;0.10;;;;;;;21.94;53.26;101555.91;5160458;27;20114;-38
2022/07/14 10:26:01;;;;;;;0.10;0.10;;;;;;;21.92;53.21;101553.41;5158686;27;20078;-39
2022/07/14 10:28:26;;;;;;;0.10;0.10;;;;;;;21.94;53.16;101550.38;5156862;27;20049;-40
2022/07/14 10:31:19;;;;;;;0.10;0.10;;;;;;;21.94;53.25;101558.69;5137796;27;20473;-40
2022/07/14 10:34:07;;;;;;;0.10;0.10;;;;;;;21.94;53.25;101558.69;5145457;27;20039;-41
2022/07/14 10:36:43;;;;;;;0.10;0.10;;;;;;;21.94;53.20;101553.13;5140853;27;20066;-40
2022/07/14 10:39:48;;;;;;;0.10;0.10;;;;;;;21.93;53.13;101548.69;5165444;27;20061;-40
2022/07/14 10:42:40;;;;;;;0.10;0.10;;;;;;;21.94;53.29;101550.38;5126382;27;20050;-40
2022/07/14 10:45:07;;;;;;;0.10;0.10;;;;;;;21.94;53.16;101550.38;5142952;27;20047;-40
2022/07/14 10:47:49;;;;;;;0.20;0.20;;;;;;;21.94;53.19;101550.38;5163993;27;20046;-40
2022/07/14 10:50:23;;;;;;;0.10;0.10;;;;;;;21.94;53.06;101548.41;5141765;27;20078;-40
2022/07/14 10:53:03;;;;;;;0.10;0.10;;;;;;;21.93;53.43;101557.00;5163527;27;20035;-40
2022/07/14 10:58:21;;;;;;;0.10;0.10;;;;;;;21.94;53.14;101542.03;5177960;27;20120;-37
2022/07/14 11:06:19;;;;;;;0.10;0.10;;;;;;;21.93;53.26;101532.88;5172522;27;20218;-38
2022/07/14 11:09:27;;;;;;;0.10;0.10;;;;;;;21.94;53.25;101528.19;5161666;27;20058;-38
2022/07/14 11:12:13;;;;;;;0.10;0.10;;;;;;;21.93;53.31;101526.50;5141925;27;20074;-38
2022/07/14 11:14:41;;;;;;;0.10;0.10;;;;;;;21.92;53.18;101528.44;5129244;27;20057;-38
2022/07/14 11:17:06;;;;;;;0.10;0.10;;;;;;;21.93;53.15;101537.59;5141769;27;20114;-38
2022/07/14 11:19:36;;;;;;;0.10;0.10;;;;;;;21.93;53.28;101532.03;5165088;27;20382;-38
2022/07/14 11:22:19;;;;;;;0.10;0.10;;;;;;;21.94;53.31;101536.50;5142475;27;20477;-37
2022/07/14 11:24:48;;;;;;;0.10;0.10;;;;;;;21.94;53.28;101542.03;5161582;27;20710;-37
2022/07/14 11:27:35;;;;;;;0.10;0.10;;;;;;;21.93;53.21;101541.19;5158403;27;20473;-37
2022/07/14 11:30:29;;;;;;;0.10;0.10;;;;;;;21.94;53.22;101548.41;5146710;27;20070;-36
2022/07/14 11:32:58;;;;;;;0.10;0.10;;;;;;;21.93;53.13;101543.13;5151365;27;20050;-38
2022/07/14 11:36:19;;;;;;;0.10;0.10;;;;;;;21.94;53.25;101539.28;5142436;27;20496;-38
2022/07/14 11:42:02;;;;;;;0.10;0.10;;;;;;;21.94;53.28;101545.66;5160654;27;20217;-38
2022/07/14 11:47:18;;;;;;;0.10;0.10;;;;;;;21.94;53.11;101542.88;5166735;27;20513;-37
2022/07/14 11:49:53;;;;;;;0.10;0.10;;;;;;;21.94;53.15;101545.66;5146810;27;20070;-38